South Hiram, Maine
Current Conditions -  °F | °C
As of 8:54 AM on Friday 19 Dec 2014 (Local Time) from KIZG Reporting Station
Clear Clear  
Wind Chill: -1°   Ceiling: Unl
Heat Index: -1°   Visibility: 10mi
Dew Point: -5°   Wind: 0mph
Humidity: 75%   Direction: NA
Pressure: 29.9"   Gusts: NA
Location:  43.8772°N, 70.8351°W
Report Text: KIZG 191354Z AUTO 00000KT 10SM CLR M01/M05 A2990 RMK AO2 SLP131 T10111050
Loading
Personal Weather Stations






























Interactive Weather Map New forecast layout! Learn more

10-Day Weather Forecast

Advertisements
Track Severe Weather on mobile